Time;durP1;ratioP1;P1;durP2;ratioP2;P2;SDS_P1;SDS_P2;PMS_P1;PMS_P2;Temp;Humidity;BMP_temperature;BMP_pressure;BME280_temperature;BME280_humidity;BME280_pressure;Samples;Min_cycle;Max_cycle;Signal;HPM_P1;HPM_P2
2021/03/21 00:00:27;;;;;;;1.20;0.60;;;20.40;29.90;;;;;;5073457;28;20025;-59
2021/03/21 00:02:52;;;;;;;2.08;0.73;;;20.40;29.90;;;;;;5071974;28;20427;-59
2021/03/21 00:05:18;;;;;;;1.38;0.65;;;20.40;29.90;;;;;;5073401;28;20032;-59
2021/03/21 00:07:44;;;;;;;2.40;0.80;;;20.40;29.90;;;;;;5073081;28;20052;-59
2021/03/21 00:10:10;;;;;;;1.20;0.60;;;20.40;30.00;;;;;;5073364;28;20056;-59
2021/03/21 00:12:36;;;;;;;1.00;0.60;;;20.30;29.90;;;;;;5073343;28;20020;-60
2021/03/21 00:15:04;;;;;;;1.70;0.68;;;20.40;30.00;;;;;;5073063;28;20017;-60
2021/03/21 00:17:30;;;;;;;1.23;0.60;;;20.30;30.00;;;;;;5071650;28;20031;-59
2021/03/21 00:19:55;;;;;;;1.58;0.55;;;20.30;30.00;;;;;;5072946;28;20412;-59
2021/03/21 00:22:21;;;;;;;2.17;0.90;;;20.30;30.00;;;;;;5072888;28;20384;-59
2021/03/21 00:24:46;;;;;;;1.23;0.65;;;20.30;30.10;;;;;;5073303;28;20033;-59
2021/03/21 00:27:12;;;;;;;0.55;0.40;;;20.30;30.10;;;;;;5072797;28;20022;-61
2021/03/21 00:29:38;;;;;;;1.75;0.80;;;20.30;30.10;;;;;;5073011;28;20028;-58
2021/03/21 00:32:04;;;;;;;1.98;0.73;;;20.30;30.10;;;;;;5073118;28;20435;-58
2021/03/21 00:34:29;;;;;;;1.10;0.63;;;20.30;30.10;;;;;;5072926;28;20414;-58
2021/03/21 00:36:55;;;;;;;2.97;1.02;;;20.30;30.10;;;;;;5072900;28;20021;-59
2021/03/21 00:39:20;;;;;;;1.23;0.60;;;20.30;30.20;;;;;;5072816;28;20039;-59
2021/03/21 00:41:46;;;;;;;1.42;0.50;;;20.30;30.20;;;;;;5073112;28;20021;-59
2021/03/21 00:44:11;;;;;;;1.95;0.70;;;20.30;30.20;;;;;;5072973;28;20038;-59
2021/03/21 00:46:37;;;;;;;1.00;0.60;;;20.20;30.20;;;;;;5075761;28;20017;-59
2021/03/21 00:49:03;;;;;;;1.20;0.70;;;20.20;30.20;;;;;;5076889;28;20486;-59
2021/03/21 00:51:29;;;;;;;2.00;0.60;;;20.20;30.20;;;;;;5076856;28;20017;-59
2021/03/21 00:53:54;;;;;;;0.95;0.60;;;20.30;30.20;;;;;;5076578;28;20118;-59
2021/03/21 00:56:41;;;;;;;2.40;0.65;;;20.20;30.30;;;;;;5076716;28;20056;-58
2021/03/21 00:59:07;;;;;;;1.20;0.70;;;20.20;30.30;;;;;;5076546;28;20512;-59
2021/03/21 01:01:33;;;;;;;1.40;0.50;;;20.20;30.30;;;;;;5076705;28;20029;-59
2021/03/21 01:03:59;;;;;;;1.77;0.70;;;20.20;30.40;;;;;;5076716;28;20458;-59
2021/03/21 01:06:25;;;;;;;0.82;0.40;;;20.20;30.40;;;;;;5076909;28;20021;-59
2021/03/21 01:08:56;;;;;;;1.42;0.70;;;20.20;30.40;;;;;;5082471;28;20060;-59
2021/03/21 01:11:28;;;;;;;0.90;0.50;;;20.20;30.40;;;;;;5077696;28;20024;-59
2021/03/21 01:13:54;;;;;;;0.93;0.60;;;20.20;30.40;;;;;;5076684;28;20484;-59
2021/03/21 01:16:29;;;;;;;2.38;0.80;;;20.10;30.40;;;;;;5075917;28;20115;-59
2021/03/21 01:18:55;;;;;;;1.77;0.70;;;20.10;30.40;;;;;;5076775;28;20056;-59
2021/03/21 01:21:26;;;;;;;1.55;0.60;;;20.10;30.50;;;;;;5076310;28;20473;-59
2021/03/21 01:23:51;;;;;;;1.88;0.82;;;20.20;30.60;;;;;;5076577;28;20043;-59
2021/03/21 01:26:20;;;;;;;1.58;0.65;;;20.10;30.50;;;;;;5077092;28;20016;-59
2021/03/21 01:28:46;;;;;;;0.90;0.50;;;20.10;30.60;;;;;;5077054;28;20024;-59
2021/03/21 01:31:16;;;;;;;1.23;0.57;;;20.10;30.60;;;;;;5076277;28;20190;-59
2021/03/21 01:33:41;;;;;;;1.35;0.65;;;20.10;30.60;;;;;;5075817;28;20033;-59
2021/03/21 01:36:21;;;;;;;1.15;0.60;;;20.10;30.60;;;;;;5075516;28;20024;-59
2021/03/21 01:38:49;;;;;;;1.00;0.60;;;20.10;30.70;;;;;;5075631;28;20051;-61
2021/03/21 01:41:25;;;;;;;1.60;0.80;;;20.10;30.70;;;;;;5075520;28;20445;-58
2021/03/21 01:43:51;;;;;;;1.63;0.55;;;20.10;30.70;;;;;;5075414;28;20389;-59
2021/03/21 01:46:36;;;;;;;1.55;0.70;;;20.10;30.70;;;;;;5075677;28;20017;-59
2021/03/21 01:49:12;;;;;;;0.80;0.50;;;20.10;30.80;;;;;;5061342;28;20072;-59
2021/03/21 01:51:38;;;;;;;1.10;0.60;;;20.10;30.70;;;;;;5075627;28;20377;-58
2021/03/21 01:54:08;;;;;;;1.50;0.70;;;20.10;30.70;;;;;;5075903;28;20033;-59
2021/03/21 01:56:35;;;;;;;0.77;0.57;;;20.10;30.80;;;;;;5075061;28;20403;-59
2021/03/21 01:59:08;;;;;;;1.45;0.80;;;20.10;30.80;;;;;;5075500;28;20029;-59
2021/03/21 02:01:35;;;;;;;1.40;0.68;;;20.00;30.80;;;;;;5075417;28;20421;-58
2021/03/21 02:04:00;;;;;;;1.50;0.60;;;20.00;30.80;;;;;;5075179;28;20047;-59
2021/03/21 02:06:35;;;;;;;2.20;0.80;;;20.00;30.90;;;;;;5075209;28;20020;-60
2021/03/21 02:09:23;;;;;;;;;;;20.00;30.90;;;;;;5075614;28;20050;-58
2021/03/21 02:12:12;;;;;;;1.42;0.70;;;20.00;30.90;;;;;;5075197;28;19905;-59
2021/03/21 02:14:47;;;;;;;1.17;0.80;;;20.00;31.00;;;;;;5075341;28;20025;-59
2021/03/21 02:17:38;;;;;;;0.85;0.50;;;20.00;30.90;;;;;;5075057;28;20142;-59
2021/03/21 02:20:21;;;;;;;1.30;0.70;;;20.00;30.90;;;;;;5032906;28;20158;-59
2021/03/21 02:22:52;;;;;;;1.77;0.70;;;20.00;30.90;;;;;;5075200;28;20021;-59
2021/03/21 02:25:44;;;;;;;1.27;0.70;;;20.00;31.00;;;;;;5074722;28;20035;-59
2021/03/21 02:28:19;;;;;;;1.10;0.60;;;20.00;31.00;;;;;;5074915;28;20024;-60
2021/03/21 02:30:48;;;;;;;1.20;0.70;;;20.00;31.00;;;;;;5074621;28;20065;-59
2021/03/21 02:33:42;;;;;;;1.40;0.80;;;20.00;31.00;;;;;;5074623;28;20021;-59
2021/03/21 02:36:15;;;;;;;1.73;0.70;;;20.00;31.00;;;;;;5074621;28;20056;-59
2021/03/21 02:38:55;;;;;;;1.48;0.80;;;19.90;31.00;;;;;;5074414;28;20060;-58
2021/03/21 02:41:24;;;;;;;2.38;0.75;;;20.00;31.10;;;;;;5074673;28;20445;-58
2021/03/21 02:43:58;;;;;;;2.22;0.85;;;19.90;31.10;;;;;;5074695;28;20060;-59
2021/03/21 02:46:35;;;;;;;2.17;0.85;;;20.00;31.10;;;;;;5074608;28;20036;-59
2021/03/21 02:49:23;;;;;;;1.52;0.73;;;20.00;31.10;;;;;;5074313;28;20500;-59
2021/03/21 02:51:54;;;;;;;2.55;0.93;;;20.00;31.20;;;;;;5073081;28;20032;-59
2021/03/21 02:54:26;;;;;;;0.82;0.60;;;20.00;31.20;;;;;;5073083;28;20056;-59
2021/03/21 02:56:57;;;;;;;1.40;0.60;;;20.00;31.10;;;;;;5074264;28;20032;-59
2021/03/21 02:59:27;;;;;;;0.90;0.60;;;19.90;31.20;;;;;;5073953;28;20522;-59
2021/03/21 03:01:57;;;;;;;1.33;0.82;;;19.90;31.20;;;;;;5073920;28;20020;-59
2021/03/21 03:04:35;;;;;;;0.85;0.55;;;19.90;31.20;;;;;;5074017;28;20109;-59
2021/03/21 03:07:20;;;;;;;1.70;0.95;;;19.90;31.30;;;;;;5073661;28;20017;-59
2021/03/21 03:09:50;;;;;;;1.73;0.70;;;19.90;31.30;;;;;;5073814;28;20029;-59
2021/03/21 03:12:31;;;;;;;1.52;0.80;;;19.90;31.30;;;;;;5073718;28;20329;-59
2021/03/21 03:14:57;;;;;;;1.20;0.70;;;19.90;31.30;;;;;;5074156;28;20024;-59
2021/03/21 03:17:40;;;;;;;0.70;0.60;;;19.90;31.40;;;;;;5073889;28;20033;-58
2021/03/21 03:20:28;;;;;;;1.67;0.88;;;19.90;31.30;;;;;;5073406;28;20044;-58
2021/03/21 03:23:17;;;;;;;1.60;0.85;;;19.90;31.40;;;;;;5073667;28;20024;-58
2021/03/21 03:26:09;;;;;;;1.13;0.70;;;19.90;31.40;;;;;;5074118;28;20028;-58
2021/03/21 03:29:04;;;;;;;1.92;0.90;;;19.90;31.40;;;;;;5071109;28;20102;-60
2021/03/21 03:31:45;;;;;;;1.25;0.77;;;19.90;31.50;;;;;;5035178;28;20036;-58
2021/03/21 03:34:11;;;;;;;2.15;0.98;;;19.90;31.40;;;;;;5073698;28;20028;-59
2021/03/21 03:36:36;;;;;;;1.98;0.68;;;19.90;31.50;;;;;;5073470;28;20166;-59
2021/03/21 03:39:03;;;;;;;2.65;0.80;;;19.90;31.40;;;;;;5073477;28;20029;-59
2021/03/21 03:41:38;;;;;;;1.27;0.80;;;19.80;31.50;;;;;;5073413;28;20031;-59
2021/03/21 03:44:18;;;;;;;1.17;0.63;;;19.80;31.50;;;;;;5073823;28;20024;-59
2021/03/21 03:46:55;;;;;;;1.08;0.70;;;19.90;31.50;;;;;;5073527;28;20036;-59
2021/03/21 03:49:30;;;;;;;1.08;0.57;;;19.90;31.50;;;;;;5073818;28;20141;-59
2021/03/21 03:52:24;;;;;;;0.98;0.68;;;19.80;31.50;;;;;;5073019;28;20020;-59
2021/03/21 03:55:01;;;;;;;1.13;0.75;;;19.80;31.60;;;;;;5037366;28;20039;-59
2021/03/21 03:57:39;;;;;;;1.90;1.02;;;19.80;31.60;;;;;;5073281;28;20013;-58
2021/03/21 04:00:30;;;;;;;0.98;0.60;;;19.80;31.50;;;;;;5073135;28;20090;-58
2021/03/21 04:03:07;;;;;;;1.95;0.98;;;19.80;31.50;;;;;;5073053;28;20417;-58
2021/03/21 04:05:38;;;;;;;1.35;0.88;;;19.80;31.50;;;;;;5072976;28;20468;-59
2021/03/21 04:08:52;;;;;;;1.20;0.80;;;19.80;31.60;;;;;;5073359;28;20031;-58
2021/03/21 04:11:26;;;;;;;1.67;0.85;;;19.80;31.60;;;;;;5041935;28;20033;-59
2021/03/21 04:14:10;;;;;;;1.45;0.82;;;19.80;31.60;;;;;;5071695;28;20032;-59
2021/03/21 04:16:42;;;;;;;1.50;0.70;;;19.80;31.60;;;;;;5073030;28;20021;-59
2021/03/21 04:19:10;;;;;;;1.52;0.80;;;19.80;31.60;;;;;;5072249;28;20052;-59
2021/03/21 04:21:49;;;;;;;1.50;0.57;;;19.80;31.70;;;;;;5072748;28;20426;-59
2021/03/21 04:24:18;;;;;;;1.73;0.88;;;19.80;31.70;;;;;;5073273;28;20024;-59
2021/03/21 04:26:50;;;;;;;1.15;0.60;;;19.80;31.60;;;;;;5073460;28;20017;-59
2021/03/21 04:29:24;;;;;;;2.22;0.93;;;19.80;31.70;;;;;;5073408;28;20052;-59
2021/03/21 04:31:52;;;;;;;1.05;0.55;;;19.80;31.70;;;;;;5073023;28;20036;-59
2021/03/21 04:34:19;;;;;;;1.92;0.80;;;19.80;31.70;;;;;;5071676;28;20029;-59
2021/03/21 04:36:46;;;;;;;1.38;0.77;;;19.80;31.80;;;;;;5072887;28;20035;-59
2021/03/21 04:39:15;;;;;;;1.90;0.80;;;19.80;31.80;;;;;;5072973;28;20123;-59
2021/03/21 04:42:00;;;;;;;1.60;0.90;;;19.70;31.90;;;;;;5073027;28;20044;-59
2021/03/21 04:44:53;;;;;;;1.77;0.80;;;19.70;31.90;;;;;;5073376;28;20027;-59
2021/03/21 04:47:30;;;;;;;0.93;0.52;;;19.80;31.90;;;;;;5062142;28;20035;-59
2021/03/21 04:49:57;;;;;;;0.80;0.60;;;19.70;31.90;;;;;;5073040;28;20021;-60
2021/03/21 04:52:48;;;;;;;1.20;0.70;;;19.70;31.90;;;;;;5072358;28;20494;-59
2021/03/21 04:55:20;;;;;;;1.38;0.60;;;19.70;31.80;;;;;;5034377;28;20090;-59
2021/03/21 04:57:48;;;;;;;1.55;0.60;;;19.80;31.90;;;;;;5072598;28;20041;-59
2021/03/21 05:00:20;;;;;;;2.17;1.10;;;19.70;31.90;;;;;;5072593;28;20029;-59
2021/03/21 05:02:49;;;;;;;1.23;0.75;;;19.70;31.90;;;;;;5072449;28;20021;-59
2021/03/21 05:05:21;;;;;;;1.27;0.75;;;19.70;31.90;;;;;;5072493;28;20133;-59
2021/03/21 05:07:52;;;;;;;1.25;0.80;;;19.70;32.00;;;;;;5072796;28;20016;-59
2021/03/21 05:10:25;;;;;;;1.58;0.77;;;19.70;31.90;;;;;;5072803;28;20524;-59
2021/03/21 05:13:05;;;;;;;2.00;0.90;;;19.70;31.90;;;;;;5072289;28;20029;-60
2021/03/21 05:15:58;;;;;;;1.42;0.63;;;19.80;31.90;;;;;;5075509;28;20035;-60
2021/03/21 05:18:42;;;;;;;1.15;0.60;;;19.80;31.80;;;;;;5078088;28;20032;-60
2021/03/21 05:21:26;;;;;;;1.17;0.63;;;19.90;31.70;;;;;;5076239;28;20389;-60
2021/03/21 05:24:02;;;;;;;2.35;0.80;;;19.90;31.70;;;;;;5076208;28;20043;-59
2021/03/21 05:26:41;;;;;;;2.00;0.85;;;19.90;31.70;;;;;;5072353;28;20111;-60
2021/03/21 05:29:16;;;;;;;1.27;0.60;;;20.00;31.70;;;;;;5073602;28;20024;-59
2021/03/21 05:31:42;;;;;;;1.17;0.70;;;20.00;31.70;;;;;;5075460;28;20021;-60
2021/03/21 05:34:08;;;;;;;0.80;0.60;;;20.00;31.70;;;;;;5078120;28;20099;-59
2021/03/21 05:36:53;;;;;;;1.13;0.68;;;20.00;31.60;;;;;;5077836;28;20031;-59
2021/03/21 05:39:30;;;;;;;0.73;0.50;;;20.10;31.60;;;;;;5076213;28;20376;-59
2021/03/21 05:41:55;;;;;;;0.82;0.50;;;20.10;31.60;;;;;;5076609;28;20568;-60
2021/03/21 05:44:42;;;;;;;1.10;0.60;;;20.10;31.60;;;;;;5082355;28;20076;-60
2021/03/21 05:47:42;;;;;;;1.75;0.65;;;20.10;31.60;;;;;;5085868;28;20507;-60
2021/03/21 05:50:26;;;;;;;0.63;0.45;;;20.20;31.60;;;;;;5084836;28;20029;-59
2021/03/21 05:53:13;;;;;;;0.75;0.50;;;20.20;31.50;;;;;;5085107;28;20028;-59
2021/03/21 05:55:50;;;;;;;1.60;0.50;;;20.20;31.50;;;;;;5083398;28;20027;-60
2021/03/21 05:58:45;;;;;;;2.42;0.85;;;20.20;31.50;;;;;;5083084;28;20025;-59
2021/03/21 06:01:30;;;;;;;0.93;0.60;;;20.30;31.60;;;;;;5076551;28;20067;-59
2021/03/21 06:04:11;;;;;;;0.75;0.50;;;20.30;31.50;;;;;;5075787;28;20255;-60
2021/03/21 06:06:47;;;;;;;1.02;0.57;;;20.30;31.50;;;;;;5075555;28;20023;-60
2021/03/21 06:09:27;;;;;;;1.17;0.50;;;20.30;31.50;;;;;;5075614;28;20025;-59
2021/03/21 06:11:59;;;;;;;0.98;0.50;;;20.40;31.50;;;;;;5075264;28;20096;-59
2021/03/21 06:14:46;;;;;;;1.05;0.70;;;20.40;31.50;;;;;;5077590;28;20013;-60
2021/03/21 06:17:14;;;;;;;1.15;0.68;;;20.40;31.50;;;;;;5080416;28;20060;-60
2021/03/21 06:20:17;;;;;;;1.33;0.55;;;20.40;31.50;;;;;;5078265;28;20044;-59
2021/03/21 06:23:07;;;;;;;1.00;0.63;;;20.40;31.50;;;;;;5075630;28;20099;-60
2021/03/21 06:25:52;;;;;;;0.75;0.43;;;20.50;31.50;;;;;;5075250;28;20048;-59
2021/03/21 06:28:54;;;;;;;1.42;0.57;;;20.50;31.50;;;;;;5075139;28;20025;-59
2021/03/21 06:31:40;;;;;;;2.28;0.55;;;20.50;31.40;;;;;;5075088;28;20043;-59
2021/03/21 06:34:26;;;;;;;0.93;0.60;;;20.50;31.50;;;;;;5075021;28;20032;-59
2021/03/21 06:36:55;;;;;;;1.25;0.63;;;20.50;31.40;;;;;;5074816;28;20488;-60
2021/03/21 06:39:59;;;;;;;0.77;0.50;;;20.50;31.50;;;;;;5074983;28;20076;-59
2021/03/21 06:42:46;;;;;;;1.10;0.55;;;20.50;31.50;;;;;;5074578;28;20106;-59
2021/03/21 06:45:34;;;;;;;1.25;0.70;;;20.50;31.50;;;;;;5074841;28;20310;-59
2021/03/21 06:48:30;;;;;;;1.80;0.70;;;20.60;31.50;;;;;;5035098;28;20040;-59
2021/03/21 06:51:45;;;;;;;1.15;0.52;;;20.60;31.50;;;;;;5074663;28;20484;-59
2021/03/21 06:54:26;;;;;;;3.17;0.70;;;20.60;31.50;;;;;;5051346;28;20044;-59
2021/03/21 06:57:14;;;;;;;1.67;0.57;;;20.60;31.50;;;;;;5074451;28;20028;-59
2021/03/21 07:00:17;;;;;;;0.95;0.63;;;20.60;31.50;;;;;;5036029;28;20073;-59
2021/03/21 07:03:31;;;;;;;1.00;0.60;;;20.60;31.50;;;;;;5074410;28;20036;-59
2021/03/21 07:06:02;;;;;;;1.52;0.50;;;20.70;31.50;;;;;;5074481;28;20036;-59
2021/03/21 07:08:46;;;;;;;0.40;0.40;;;20.70;31.60;;;;;;5074179;28;20545;-59
2021/03/21 07:11:33;;;;;;;1.52;0.70;;;20.70;31.60;;;;;;5074650;28;20028;-60
2021/03/21 07:14:17;;;;;;;0.90;0.60;;;20.70;31.50;;;;;;5074054;28;20491;-59
2021/03/21 07:17:04;;;;;;;0.98;0.50;;;20.80;31.50;;;;;;5074288;28;20028;-60
2021/03/21 07:20:07;;;;;;;1.17;0.60;;;20.80;31.50;;;;;;5073843;28;20055;-59
2021/03/21 07:23:18;;;;;;;0.82;0.60;;;20.80;31.60;;;;;;5074349;28;20075;-59
2021/03/21 07:26:09;;;;;;;1.60;0.73;;;20.80;31.60;;;;;;5073944;28;20025;-59
2021/03/21 07:28:46;;;;;;;2.38;0.63;;;20.80;31.60;;;;;;5074108;28;20031;-59
2021/03/21 07:31:23;;;;;;;1.00;0.57;;;20.80;31.50;;;;;;5073932;28;20483;-60
2021/03/21 07:34:29;;;;;;;1.38;0.60;;;20.80;31.60;;;;;;5074236;28;20028;-59
2021/03/21 07:37:40;;;;;;;0.70;0.57;;;20.80;31.60;;;;;;5044498;28;20107;-60
2021/03/21 07:40:27;;;;;;;2.30;0.57;;;20.90;31.60;;;;;;4992068;28;20030;-59
2021/03/21 07:43:45;;;;;;;2.97;0.60;;;21.00;31.60;;;;;;5073561;28;20052;-60
2021/03/21 07:46:33;;;;;;;0.80;0.47;;;20.90;31.60;;;;;;4992129;28;20433;-60
2021/03/21 07:49:34;;;;;;;1.02;0.50;;;20.90;31.60;;;;;;4974240;28;20046;-59
2021/03/21 07:52:24;;;;;;;1.83;0.70;;;21.00;31.60;;;;;;5062583;28;20044;-59
2021/03/21 07:55:03;;;;;;;0.77;0.43;;;21.00;31.50;;;;;;5073189;28;20039;-60
2021/03/21 07:57:46;;;;;;;1.23;0.57;;;21.00;31.60;;;;;;5073543;28;20016;-60
2021/03/21 08:00:13;;;;;;;0.80;0.50;;;21.00;31.60;;;;;;5073719;28;20127;-59
2021/03/21 08:02:39;;;;;;;1.08;0.52;;;21.00;31.60;;;;;;5073833;28;20016;-59
2021/03/21 08:05:26;;;;;;;0.82;0.47;;;21.00;31.50;;;;;;5075111;28;20039;-59
2021/03/21 08:07:53;;;;;;;1.35;0.50;;;21.00;31.50;;;;;;5082229;28;20407;-60
2021/03/21 08:10:29;;;;;;;1.13;0.40;;;21.00;31.60;;;;;;5082832;28;20030;-59
2021/03/21 08:13:07;;;;;;;0.82;0.47;;;21.10;31.50;;;;;;5079228;28;20024;-59
2021/03/21 08:15:36;;;;;;;0.90;0.50;;;21.00;31.50;;;;;;5078692;28;20365;-60
2021/03/21 08:18:03;;;;;;;1.15;0.50;;;21.00;31.60;;;;;;5083397;28;20028;-60
2021/03/21 08:20:38;;;;;;;0.88;0.50;;;21.10;31.60;;;;;;5072991;28;20076;-60
2021/03/21 08:23:19;;;;;;;0.73;0.50;;;21.10;31.60;;;;;;5073388;28;20103;-59
2021/03/21 08:25:45;;;;;;;1.50;0.60;;;21.10;31.60;;;;;;5073162;28;20025;-59
2021/03/21 08:28:16;;;;;;;1.58;0.57;;;21.10;31.60;;;;;;5074704;28;20029;-59
2021/03/21 08:30:50;;;;;;;0.73;0.50;;;21.10;31.60;;;;;;5082324;28;20017;-60
2021/03/21 08:33:34;;;;;;;1.90;0.50;;;21.10;31.50;;;;;;5077502;28;20411;-59
2021/03/21 08:36:08;;;;;;;2.00;0.43;;;21.10;31.50;;;;;;5073555;28;20032;-59
2021/03/21 08:38:34;;;;;;;;;;;21.10;31.50;;;;;;5073438;28;20072;-59
2021/03/21 08:41:02;;;;;;;2.75;0.50;;;21.10;31.50;;;;;;5073264;28;19904;-59
2021/03/21 08:43:30;;;;;;;1.08;0.50;;;21.20;31.50;;;;;;5073200;28;20059;-59
2021/03/21 08:45:56;;;;;;;1.02;0.45;;;21.10;31.50;;;;;;5073295;28;20381;-59
2021/03/21 08:48:27;;;;;;;1.88;0.70;;;21.10;31.50;;;;;;5073372;28;20031;-58
2021/03/21 08:50:56;;;;;;;1.75;0.77;;;21.20;31.50;;;;;;5073149;28;20099;-59
2021/03/21 08:53:35;;;;;;;2.25;0.80;;;21.20;31.50;;;;;;5074063;28;20017;-60
2021/03/21 08:56:24;;;;;;;2.88;0.60;;;21.20;31.50;;;;;;5074671;28;20078;-59
2021/03/21 08:59:10;;;;;;;2.42;0.50;;;21.20;31.50;;;;;;5076635;28;20028;-59
2021/03/21 09:01:36;;;;;;;2.33;0.85;;;21.20;31.40;;;;;;5075901;28;20460;-59
2021/03/21 09:04:11;;;;;;;2.05;0.65;;;21.20;31.50;;;;;;5072957;28;20041;-59
2021/03/21 09:06:40;;;;;;;1.17;0.63;;;21.20;31.40;;;;;;5074117;28;20023;-60
2021/03/21 09:09:33;;;;;;;2.95;0.88;;;21.20;31.40;;;;;;5076815;28;20035;-59
2021/03/21 09:12:19;;;;;;;2.90;0.90;;;21.20;31.40;;;;;;5076550;28;20027;-59
2021/03/21 09:14:45;;;;;;;3.13;0.70;;;21.20;31.40;;;;;;5076218;28;20178;-59
2021/03/21 09:17:22;;;;;;;1.10;0.60;;;21.20;31.40;;;;;;5076577;28;20511;-60
2021/03/21 09:19:55;;;;;;;2.55;0.70;;;21.20;31.40;;;;;;5075811;28;20057;-60
2021/03/21 09:22:39;;;;;;;1.48;0.68;;;21.20;31.40;;;;;;5076341;28;20031;-60
2021/03/21 09:25:14;;;;;;;1.23;0.40;;;21.20;31.40;;;;;;5076163;28;20606;-59
2021/03/21 09:27:43;;;;;;;2.05;0.50;;;21.20;31.40;;;;;;5076521;28;20254;-59
2021/03/21 09:30:27;;;;;;;2.10;0.65;;;21.30;31.40;;;;;;5076230;28;20476;-59
2021/03/21 09:33:00;;;;;;;3.17;0.70;;;21.30;31.30;;;;;;5076262;28;20028;-58
2021/03/21 09:35:43;;;;;;;1.30;0.70;;;21.30;31.30;;;;;;5076090;28;20141;-59
2021/03/21 09:38:21;;;;;;;2.42;0.50;;;21.30;31.30;;;;;;5075474;28;20021;-58
2021/03/21 09:41:04;;;;;;;2.83;0.70;;;21.30;31.30;;;;;;5075363;28;20115;-58
2021/03/21 09:43:34;;;;;;;3.85;0.90;;;21.30;31.30;;;;;;5075446;28;20031;-59
2021/03/21 09:46:46;;;;;;;3.17;0.77;;;21.30;31.30;;;;;;5075394;28;20021;-58
2021/03/21 09:49:21;;;;;;;2.38;0.80;;;21.30;31.30;;;;;;5075703;28;20033;-59
2021/03/21 09:51:50;;;;;;;;;;;21.30;31.30;;;;;;5076358;28;20392;-59
2021/03/21 09:54:34;;;;;;;2.80;0.73;;;21.30;31.30;;;;;;5074911;28;19912;-59
2021/03/21 09:57:23;;;;;;;2.58;0.60;;;21.30;31.30;;;;;;5075575;28;20029;-59
2021/03/21 09:59:57;;;;;;;2.13;0.70;;;21.30;31.30;;;;;;5075653;28;20086;-59
2021/03/21 10:02:40;;;;;;;4.70;1.08;;;21.30;31.30;;;;;;5074407;28;20078;-59
2021/03/21 10:05:25;;;;;;;3.85;0.88;;;21.30;31.30;;;;;;5075639;28;20029;-58
2021/03/21 10:08:00;;;;;;;4.13;1.02;;;21.30;31.30;;;;;;5075634;28;20402;-58
2021/03/21 10:10:33;;;;;;;3.03;0.88;;;21.40;31.20;;;;;;5075854;28;20059;-58
2021/03/21 10:12:58;;;;;;;4.03;1.00;;;21.40;31.30;;;;;;5075402;28;20039;-58
2021/03/21 10:15:26;;;;;;;3.58;0.93;;;21.40;31.30;;;;;;5075438;28;20114;-58
2021/03/21 10:18:00;;;;;;;3.72;0.80;;;21.40;31.20;;;;;;5076146;28;20415;-58
2021/03/21 10:21:04;;;;;;;3.33;0.80;;;21.40;31.20;;;;;;5079665;28;20045;-60
2021/03/21 10:23:47;;;;;;;2.33;0.70;;;21.40;31.20;;;;;;5075487;28;20524;-59
2021/03/21 10:26:14;;;;;;;2.25;1.10;;;21.40;31.20;;;;;;5075211;28;20096;-59
2021/03/21 10:28:48;;;;;;;2.53;0.80;;;21.40;31.10;;;;;;5075415;28;20049;-60
2021/03/21 10:31:23;;;;;;;;;;;21.40;31.10;;;;;;5075362;28;20024;-60
2021/03/21 10:34:15;;;;;;;3.78;1.15;;;21.40;31.10;;;;;;5075044;28;19950;-59
2021/03/21 10:36:40;;;;;;;4.88;1.08;;;21.40;31.00;;;;;;5074573;28;20483;-59
2021/03/21 10:39:10;;;;;;;3.35;0.90;;;21.40;31.10;;;;;;5074618;28;20085;-59
2021/03/21 10:41:57;;;;;;;3.83;1.15;;;21.40;31.00;;;;;;5075077;28;20025;-59
2021/03/21 10:44:44;;;;;;;4.53;1.23;;;21.40;31.00;;;;;;5074597;28;20051;-59
2021/03/21 10:47:21;;;;;;;5.68;1.23;;;21.40;31.00;;;;;;5074542;28;20044;-59
2021/03/21 10:49:50;;;;;;;6.47;1.40;;;21.40;30.90;;;;;;5074396;28;20025;-59
2021/03/21 10:52:37;;;;;;;3.83;1.20;;;21.40;30.90;;;;;;5074697;28;20112;-60
2021/03/21 10:55:21;;;;;;;6.53;1.27;;;21.50;30.80;;;;;;5074586;28;20099;-59
2021/03/21 10:57:47;;;;;;;4.50;1.15;;;21.50;30.80;;;;;;5074684;28;20025;-60
2021/03/21 11:00:26;;;;;;;6.40;1.27;;;21.50;30.80;;;;;;5074217;28;20032;-61
2021/03/21 11:03:13;;;;;;;6.22;1.27;;;21.50;30.70;;;;;;5074301;28;20024;-60
2021/03/21 11:05:44;;;;;;;5.13;1.17;;;21.50;30.80;;;;;;5074213;28;20037;-59
2021/03/21 11:08:13;;;;;;;3.67;1.05;;;21.50;30.70;;;;;;5074559;28;20020;-59
2021/03/21 11:10:44;;;;;;;5.72;1.02;;;21.50;30.70;;;;;;5073822;28;20052;-59
2021/03/21 11:13:14;;;;;;;4.72;1.20;;;21.50;30.80;;;;;;5074097;28;20056;-60
2021/03/21 11:15:44;;;;;;;4.60;1.20;;;21.50;30.70;;;;;;5072713;28;20035;-59
2021/03/21 11:18:32;;;;;;;6.22;1.20;;;21.50;30.80;;;;;;5074091;28;20471;-59
2021/03/21 11:21:17;;;;;;;8.27;1.55;;;21.50;30.80;;;;;;5073851;28;20055;-59
2021/03/21 11:23:54;;;;;;;5.60;1.40;;;21.50;30.70;;;;;;5074764;28;20021;-59
2021/03/21 11:26:31;;;;;;;4.65;1.23;;;21.50;30.70;;;;;;5073909;28;20099;-59
2021/03/21 11:29:06;;;;;;;4.07;1.13;;;21.50;30.70;;;;;;5073249;28;20135;-60
2021/03/21 11:31:49;;;;;;;5.90;1.50;;;21.50;30.70;;;;;;5073686;28;20033;-59
2021/03/21 11:34:17;;;;;;;7.55;1.48;;;21.50;30.70;;;;;;5073496;28;20029;-59
2021/03/21 11:36:43;;;;;;;5.10;1.40;;;21.60;30.70;;;;;;5073680;28;20026;-59
2021/03/21 11:39:26;;;;;;;6.85;1.75;;;21.60;30.70;;;;;;5073502;28;20082;-60
2021/03/21 11:41:51;;;;;;;5.53;1.33;;;21.60;30.60;;;;;;5073783;28;20427;-59
2021/03/21 11:44:32;;;;;;;4.78;1.27;;;21.60;30.60;;;;;;5073597;28;20032;-59
2021/03/21 11:47:14;;;;;;;5.30;1.08;;;21.60;30.60;;;;;;5073313;28;20468;-59
2021/03/21 11:49:41;;;;;;;7.70;1.65;;;21.60;30.60;;;;;;5073635;28;20099;-59
2021/03/21 11:52:08;;;;;;;4.63;1.45;;;21.50;30.50;;;;;;5073367;28;20086;-59
2021/03/21 11:54:36;;;;;;;7.03;1.63;;;21.60;30.60;;;;;;5073626;28;20027;-59
2021/03/21 11:57:26;;;;;;;7.07;1.20;;;21.60;30.50;;;;;;5073275;28;20476;-59
2021/03/21 12:00:15;;;;;;;6.38;1.23;;;21.60;30.50;;;;;;5073337;28;20396;-59
2021/03/21 12:02:57;;;;;;;5.47;1.15;;;21.60;30.50;;;;;;5062809;28;20119;-59
2021/03/21 12:05:26;;;;;;;7.10;1.55;;;21.60;30.50;;;;;;5071798;28;20488;-60
2021/03/21 12:07:51;;;;;;;5.93;1.65;;;21.60;30.60;;;;;;5073735;28;20028;-59
2021/03/21 12:10:30;;;;;;;5.47;1.38;;;21.60;30.50;;;;;;5073159;28;20025;-59
2021/03/21 12:12:56;;;;;;;5.32;1.30;;;21.60;30.50;;;;;;5073287;28;20492;-59
2021/03/21 12:15:24;;;;;;;7.68;1.45;;;21.60;30.50;;;;;;5073224;28;20391;-59
2021/03/21 12:18:03;;;;;;;4.97;1.65;;;21.60;30.50;;;;;;5073020;28;20103;-60
2021/03/21 12:20:40;;;;;;;5.22;1.42;;;21.60;30.50;;;;;;5073195;28;20467;-59
2021/03/21 12:23:20;;;;;;;5.35;1.50;;;21.60;30.50;;;;;;5073320;28;20481;-60
2021/03/21 12:25:46;;;;;;;5.05;1.35;;;21.50;30.50;;;;;;5073239;28;20465;-59
2021/03/21 12:28:20;;;;;;;7.28;1.55;;;21.60;30.50;;;;;;5073116;28;20029;-59
2021/03/21 12:30:54;;;;;;;6.28;1.67;;;21.60;30.50;;;;;;5072916;28;20443;-59
2021/03/21 12:33:40;;;;;;;7.10;1.70;;;21.60;30.50;;;;;;5072931;28;20033;-59
2021/03/21 12:36:08;;;;;;;6.85;1.58;;;21.60;30.40;;;;;;5073189;28;20490;-59
2021/03/21 12:38:53;;;;;;;6.65;1.55;;;21.60;30.40;;;;;;5072808;28;20496;-59
2021/03/21 12:41:37;;;;;;;5.38;1.27;;;21.60;30.40;;;;;;5075731;28;20024;-59
2021/03/21 12:44:21;;;;;;;6.78;1.63;;;21.60;30.40;;;;;;5077128;28;20074;-59
2021/03/21 12:47:17;;;;;;;7.28;1.75;;;21.60;30.40;;;;;;5075675;28;20048;-60
2021/03/21 12:49:53;;;;;;;6.95;1.75;;;21.70;30.30;;;;;;5076789;28;20388;-59
2021/03/21 12:52:35;;;;;;;4.93;1.20;;;21.70;30.30;;;;;;5076523;28;20499;-59
2021/03/21 12:55:01;;;;;;;6.22;1.55;;;21.70;30.30;;;;;;5076739;28;20033;-59
2021/03/21 12:57:27;;;;;;;6.85;1.63;;;21.70;30.30;;;;;;5076315;28;20107;-59
2021/03/21 12:59:53;;;;;;;6.65;1.88;;;21.70;30.30;;;;;;5076734;28;20112;-59
2021/03/21 13:02:28;;;;;;;7.90;1.85;;;21.70;30.30;;;;;;5076926;28;20025;-59
2021/03/21 13:04:53;;;;;;;;;;;21.70;30.30;;;;;;5075745;28;20035;-59
2021/03/21 13:07:20;;;;;;;9.43;2.03;;;21.70;30.30;;;;;;5076623;28;19904;-59
2021/03/21 13:09:46;;;;;;;9.18;1.75;;;21.70;30.30;;;;;;5076723;28;20086;-59
2021/03/21 13:12:13;;;;;;;8.98;2.47;;;21.70;30.30;;;;;;5076497;28;20032;-59
2021/03/21 13:14:39;;;;;;;9.88;1.85;;;21.70;30.30;;;;;;5076578;28;20116;-59
2021/03/21 13:17:05;;;;;;;7.65;2.53;;;21.70;30.20;;;;;;5076171;28;20104;-59
2021/03/21 13:19:31;;;;;;;7.68;1.70;;;21.70;30.20;;;;;;5075833;28;20045;-58
2021/03/21 13:21:56;;;;;;;7.15;1.75;;;21.70;30.30;;;;;;5076312;28;20380;-58
2021/03/21 13:24:23;;;;;;;5.88;1.38;;;21.70;30.20;;;;;;5076226;28;20074;-58
2021/03/21 13:26:48;;;;;;;7.22;1.55;;;21.70;30.20;;;;;;5076543;28;20046;-58
2021/03/21 13:29:14;;;;;;;8.40;1.80;;;21.70;30.20;;;;;;5075888;28;20567;-59
2021/03/21 13:31:39;;;;;;;6.22;1.50;;;21.70;30.30;;;;;;5075924;28;20044;-58
2021/03/21 13:34:05;;;;;;;6.88;1.65;;;21.70;30.20;;;;;;5075895;28;20060;-60
2021/03/21 13:36:30;;;;;;;7.75;1.63;;;21.70;30.30;;;;;;5075891;28;20161;-59